createdAt,value
2022-11-22T05:40:29.866Z,2.30
2022-11-22T05:42:57.694Z,2.10
2022-11-22T05:45:44.407Z,2.40
2022-11-22T05:48:31.138Z,2.13
2022-11-22T05:51:17.836Z,1.90
2022-11-22T05:54:05.213Z,2.30
2022-11-22T05:56:52.071Z,2.70
2022-11-22T05:59:43.930Z,2.03
2022-11-22T06:02:31.188Z,2.27
2022-11-22T06:05:17.970Z,1.80
2022-11-22T06:08:05.351Z,2.43
2022-11-22T06:10:52.138Z,2.30
2022-11-22T06:13:38.831Z,2.50
2022-11-22T06:16:27.319Z,2.40
2022-11-22T06:19:14.239Z,2.40
2022-11-22T06:22:00.962Z,2.50
2022-11-22T06:24:47.881Z,2.40
2022-11-22T06:27:34.584Z,2.10
2022-11-22T06:30:21.307Z,2.63
2022-11-22T06:33:08.052Z,2.40
2022-11-22T06:35:54.744Z,2.47
2022-11-22T06:38:41.472Z,2.43
2022-11-22T06:41:30.952Z,2.37
2022-11-22T06:44:17.715Z,2.70
2022-11-22T06:47:04.406Z,2.13
2022-11-22T06:49:51.130Z,2.67
2022-11-22T06:52:37.852Z,2.70
2022-11-22T06:55:49.137Z,2.50
2022-11-22T06:58:31.641Z,2.83
2022-11-22T07:01:30.534Z,2.47
2022-11-22T07:04:19.175Z,2.23
2022-11-22T07:07:07.257Z,2.37
2022-11-22T07:09:56.600Z,2.43
2022-11-22T07:12:43.472Z,2.60
2022-11-22T07:15:30.826Z,2.87
2022-11-22T07:18:17.619Z,2.83
2022-11-22T07:21:09.384Z,2.43
2022-11-22T07:24:00.738Z,3.10
2022-11-22T07:26:47.940Z,2.30
2022-11-22T07:29:34.626Z,2.30
2022-11-22T07:32:21.359Z,2.33
2022-11-22T07:35:08.403Z,2.20
2022-11-22T07:37:55.108Z,2.40
2022-11-22T07:40:41.803Z,2.57
2022-11-22T07:43:28.576Z,2.60
2022-11-22T07:46:22.515Z,2.33
2022-11-22T07:49:09.954Z,2.40
2022-11-22T07:51:56.636Z,3.07
2022-11-22T07:54:43.343Z,2.23
2022-11-22T07:57:30.075Z,2.80
2022-11-22T08:00:16.774Z,2.03
2022-11-22T08:03:03.546Z,2.60
2022-11-22T08:05:50.326Z,2.63
2022-11-22T08:08:37.035Z,2.23
2022-11-22T08:11:25.131Z,2.73
2022-11-22T08:14:11.945Z,2.60
2022-11-22T08:16:58.688Z,2.50
2022-11-22T08:19:45.392Z,2.60
2022-11-22T08:22:32.096Z,2.60
2022-11-22T08:25:18.798Z,2.70
2022-11-22T08:28:05.486Z,2.93
2022-11-22T08:30:52.227Z,2.40
2022-11-22T08:33:38.922Z,2.43
2022-11-22T08:36:26.347Z,2.43
2022-11-22T08:39:13.358Z,3.10
2022-11-22T08:42:00.054Z,2.50
2022-11-22T08:44:46.768Z,2.73
2022-11-22T08:47:33.568Z,2.37
2022-11-22T08:50:20.273Z,2.70
2022-11-22T08:53:06.992Z,2.40
2022-11-22T08:55:53.714Z,2.40
2022-11-22T08:58:40.706Z,2.30
2022-11-22T09:01:38.970Z,2.60
2022-11-22T09:04:25.793Z,2.30
2022-11-22T09:10:19.388Z,2.40
2022-11-22T09:13:06.623Z,2.47
2022-11-22T09:15:53.462Z,2.00
2022-11-22T09:18:40.382Z,1.83
2022-11-22T09:21:35.507Z,1.90
2022-11-22T09:24:22.222Z,2.37
2022-11-22T09:27:08.999Z,2.13
2022-11-22T09:29:55.722Z,2.17
2022-11-22T09:32:42.544Z,1.70
2022-11-22T09:35:29.430Z,2.23
2022-11-22T09:38:16.139Z,2.50
2022-11-22T09:41:06.789Z,2.10
2022-11-22T09:43:56.231Z,1.77
2022-11-22T09:46:55.143Z,1.50
2022-11-22T09:50:12.601Z,1.70
2022-11-22T09:53:24.668Z,1.80
2022-11-22T09:56:16.069Z,1.80
2022-11-22T09:59:09.367Z,2.30
2022-11-22T10:02:11.582Z,2.33
2022-11-22T10:05:11.644Z,1.80
2022-11-22T10:08:03.204Z,2.10
2022-11-22T10:11:01.115Z,2.20
2022-11-22T10:13:55.550Z,2.20
2022-11-22T10:16:54.735Z,1.77
2022-11-22T10:19:59.608Z,2.33
2022-11-22T10:22:49.793Z,1.90
2022-11-22T10:25:41.555Z,2.20
2022-11-22T10:28:53.920Z,2.00
2022-11-22T10:31:40.581Z,2.37
2022-11-22T10:35:04.848Z,2.10
2022-11-22T10:38:16.013Z,2.30
2022-11-22T10:41:17.967Z,2.13
2022-11-22T10:44:46.043Z,2.10
2022-11-22T10:47:38.258Z,1.93
2022-11-22T10:51:15.653Z,2.10
2022-11-22T10:54:33.382Z,1.93
2022-11-22T10:57:47.991Z,1.93
2022-11-22T11:00:46.467Z,2.30
2022-11-22T11:03:57.478Z,2.50
2022-11-22T11:10:26.402Z,2.43
2022-11-22T11:13:27.483Z,1.87
2022-11-22T11:16:17.694Z,2.27
2022-11-22T11:19:14.444Z,2.20
2022-11-22T11:22:01.248Z,2.07
2022-11-22T11:24:51.529Z,2.20
2022-11-22T11:27:40.839Z,2.50
2022-11-22T11:30:31.694Z,2.20
2022-11-22T11:33:18.397Z,2.23
2022-11-22T11:36:05.428Z,1.83
2022-11-22T11:39:01.380Z,2.23
2022-11-22T11:41:53.755Z,2.20
2022-11-22T11:44:48.038Z,2.83
2022-11-22T11:47:40.263Z,2.50
2022-11-22T11:50:39.100Z,2.47
2022-11-22T11:53:44.814Z,2.30
2022-11-22T11:56:48.651Z,2.23
2022-11-22T11:59:42.363Z,2.47
2022-11-22T12:02:43.767Z,2.37
2022-11-22T12:05:33.631Z,2.10
2022-11-22T12:08:21.331Z,2.20
2022-11-22T12:11:24.237Z,1.93
2022-11-22T12:14:20.369Z,2.60
2022-11-22T12:17:09.445Z,2.33
2022-11-22T12:20:02.241Z,1.97
2022-11-22T12:23:02.326Z,2.07
2022-11-22T12:25:59.694Z,2.30
2022-11-22T12:28:48.811Z,2.20
2022-11-22T12:31:59.591Z,2.23
2022-11-22T12:34:54.426Z,2.33
2022-11-22T12:37:51.410Z,2.30
2022-11-22T12:40:45.042Z,2.30
2022-11-22T12:43:46.293Z,2.30
2022-11-22T12:47:01.860Z,2.20
2022-11-22T12:49:58.543Z,2.40
2022-11-22T12:53:01.828Z,2.33
2022-11-22T12:55:56.771Z,2.00
2022-11-22T12:58:58.387Z,2.20
2022-11-22T13:01:52.860Z,2.00
2022-11-22T13:04:45.928Z,1.90
2022-11-22T13:07:45.574Z,2.03
2022-11-22T13:10:45.035Z,2.07
2022-11-22T13:13:52.317Z,2.30
2022-11-22T13:16:39.112Z,1.90
2022-11-22T13:19:28.275Z,2.30
2022-11-22T13:22:36.329Z,2.00
2022-11-22T13:25:41.539Z,2.13
2022-11-22T13:28:38.452Z,2.07
2022-11-22T13:31:25.403Z,2.13
2022-11-22T13:34:17.846Z,2.00
2022-11-22T13:37:06.942Z,1.97
2022-11-22T13:39:58.924Z,2.00
2022-11-22T13:42:48.276Z,2.00
2022-11-22T13:45:45.119Z,2.27
2022-11-22T13:48:31.889Z,1.80
2022-11-22T13:51:19.879Z,1.63
2022-11-22T13:54:07.861Z,1.80
2022-11-22T13:57:00.477Z,1.67
2022-11-22T13:59:47.274Z,2.00
2022-11-22T14:02:43.856Z,1.67
2022-11-22T14:05:52.150Z,1.73
2022-11-22T14:08:55.769Z,2.07
2022-11-22T14:12:04.598Z,1.83
2022-11-22T14:15:26.535Z,2.30
2022-11-22T14:18:36.439Z,1.80
2022-11-22T14:21:37.325Z,2.10
2022-11-22T14:24:42.082Z,1.90
2022-11-22T14:28:10.005Z,2.00
2022-11-22T14:31:17.420Z,1.60
2022-11-22T14:34:36.899Z,1.93
2022-11-22T14:37:32.764Z,2.10
2022-11-22T14:40:28.518Z,1.73
2022-11-22T14:43:18.730Z,1.97
2022-11-22T14:46:52.815Z,2.00
2022-11-22T14:49:52.578Z,2.07
2022-11-22T14:52:45.674Z,2.00
2022-11-22T14:55:38.848Z,2.07
2022-11-22T14:58:31.722Z,2.10
2022-11-22T15:01:56.618Z,1.50
2022-11-22T15:09:15.571Z,1.73
2022-11-22T15:09:20.788Z,1.87
2022-11-22T15:11:53.414Z,1.93
2022-11-22T15:14:42.857Z,1.80
2022-11-22T15:58:51.230Z,1.90
2022-11-22T16:01:38.924Z,1.70
2022-11-22T16:04:25.720Z,1.87
2022-11-22T16:07:12.503Z,1.70
2022-11-22T16:09:59.986Z,1.77
2022-11-22T16:12:56.179Z,1.70
2022-11-22T16:15:58.952Z,1.50
2022-11-22T16:18:47.814Z,1.57
2022-11-22T16:21:37.250Z,1.80
2022-11-22T16:24:37.335Z,1.47
2022-11-22T16:27:32.664Z,1.50
2022-11-22T16:30:23.592Z,1.93
2022-11-22T16:33:10.916Z,1.60
2022-11-22T16:35:58.363Z,1.80
2022-11-22T16:38:46.215Z,1.40
2022-11-22T16:41:39.812Z,1.73
2022-11-22T16:44:31.517Z,1.40
2022-11-22T16:47:18.453Z,1.77
2022-11-22T16:50:06.252Z,1.50
2022-11-22T16:52:53.091Z,1.40
2022-11-22T16:55:40.817Z,1.37
2022-11-22T16:58:36.072Z,1.30
2022-11-22T17:01:22.991Z,1.43
2022-11-22T17:04:13.130Z,1.57
2022-11-22T17:06:59.890Z,1.23
2022-11-22T17:09:46.622Z,1.37
2022-11-22T17:12:42.316Z,1.30
2022-11-22T17:15:30.549Z,1.30
2022-11-22T17:18:17.268Z,1.47
2022-11-22T17:21:04.481Z,1.73
2022-11-22T17:23:54.620Z,1.57
2022-11-22T17:26:41.533Z,1.30
2022-11-22T17:29:49.435Z,1.20
2022-11-22T17:32:34.999Z,1.10
2022-11-22T17:35:21.706Z,1.20
2022-11-22T17:38:12.649Z,1.47
2022-11-22T17:40:59.408Z,1.30
2022-11-22T17:43:46.263Z,1.50
2022-11-22T17:46:32.971Z,1.07
2022-11-22T17:49:21.764Z,1.17
2022-11-22T17:52:08.519Z,1.03
2022-11-22T17:54:55.657Z,1.63
2022-11-22T17:57:44.129Z,1.10
2022-11-22T18:00:31.387Z,1.20
2022-11-22T18:03:18.122Z,1.40
2022-11-22T18:06:04.914Z,1.27
2022-11-22T18:08:52.911Z,1.23
2022-11-22T18:11:39.711Z,1.20
2022-11-22T18:14:26.426Z,1.27
2022-11-22T18:17:13.229Z,1.40
2022-11-22T18:20:00.187Z,1.20
2022-11-22T18:22:47.323Z,1.10
2022-11-22T18:25:34.173Z,1.13
2022-11-22T18:28:20.884Z,1.20
2022-11-22T18:31:07.621Z,1.23
2022-11-22T18:33:54.415Z,1.50
2022-11-22T18:36:57.520Z,1.57
2022-11-22T18:39:50.852Z,1.40
2022-11-22T18:42:37.684Z,1.30
2022-11-22T18:45:25.184Z,1.17
2022-11-22T18:48:11.887Z,1.70
2022-11-22T18:50:58.593Z,1.27
2022-11-22T18:53:45.329Z,1.53
2022-11-22T18:56:34.186Z,1.50
2022-11-22T18:59:20.961Z,1.67
2022-11-22T19:02:07.934Z,1.50
2022-11-22T19:04:54.714Z,1.83
2022-11-22T19:07:42.024Z,1.80
2022-11-22T19:10:29.330Z,2.10
2022-11-22T19:13:16.084Z,2.37
2022-11-22T19:16:02.884Z,2.63
2022-11-22T19:18:49.610Z,2.60
2022-11-22T19:21:38.688Z,2.50
2022-11-22T19:24:25.779Z,2.47
2022-11-22T19:27:12.543Z,2.70
2022-11-22T19:29:59.337Z,2.77
2022-11-22T19:32:46.103Z,2.70
2022-11-22T19:35:32.899Z,2.47
2022-11-22T19:38:19.615Z,2.57
2022-11-22T19:41:06.371Z,2.40
2022-11-22T19:43:53.114Z,2.33
2022-11-22T19:46:40.036Z,2.10
2022-11-22T19:49:26.868Z,2.27
2022-11-22T19:52:13.584Z,2.20
2022-11-22T19:55:00.286Z,1.80
2022-11-22T19:57:46.981Z,2.00
2022-11-22T20:00:34.312Z,2.30
2022-11-22T20:03:21.061Z,1.80
2022-11-22T20:06:07.782Z,2.00
2022-11-22T20:08:55.240Z,2.27
2022-11-22T20:11:41.941Z,1.97
2022-11-22T20:14:29.780Z,2.13
2022-11-22T20:17:16.749Z,1.80
2022-11-22T20:20:03.476Z,1.80
2022-11-22T20:22:50.243Z,1.80
2022-11-22T20:25:36.999Z,1.83
2022-11-22T20:28:23.769Z,1.83
2022-11-22T20:31:10.596Z,1.50
2022-11-22T20:33:59.953Z,1.60
2022-11-22T20:36:52.171Z,1.40
2022-11-22T20:39:38.867Z,1.70
2022-11-22T20:42:34.085Z,1.40
2022-11-22T20:45:21.685Z,1.53
2022-11-22T20:48:08.446Z,1.50
2022-11-22T20:50:55.147Z,1.50
2022-11-22T20:53:41.890Z,1.60
2022-11-22T20:56:29.267Z,1.27
2022-11-22T20:59:16.073Z,1.00
2022-11-22T21:02:06.353Z,1.30
2022-11-22T21:04:55.863Z,1.07
2022-11-22T21:07:42.701Z,1.50
2022-11-22T21:10:29.608Z,1.40
2022-11-22T21:13:16.339Z,1.20
2022-11-22T21:16:08.866Z,1.10
2022-11-22T21:19:11.382Z,1.03
2022-11-22T21:21:58.401Z,1.07
2022-11-22T21:24:45.122Z,1.10
2022-11-22T21:27:31.875Z,1.20
2022-11-22T21:30:18.645Z,1.07
2022-11-22T21:33:05.376Z,1.10
2022-11-22T21:35:52.119Z,1.40
2022-11-22T21:38:41.963Z,1.00
2022-11-22T21:41:40.238Z,1.10
2022-11-22T21:44:27.854Z,1.13
2022-11-22T21:47:14.663Z,1.13
2022-11-22T21:50:01.437Z,1.00
2022-11-22T21:52:48.149Z,1.10
2022-11-22T21:55:34.959Z,0.90
2022-11-22T21:58:21.750Z,0.90
2022-11-22T22:01:14.073Z,0.97
2022-11-22T22:04:01.332Z,1.00
2022-11-22T22:06:48.044Z,0.73
2022-11-22T22:09:34.803Z,0.73
2022-11-22T22:12:21.496Z,0.43
2022-11-22T22:15:08.235Z,0.70
2022-11-22T22:17:54.986Z,0.60
2022-11-22T22:20:42.937Z,0.80
2022-11-22T22:23:29.647Z,0.60
2022-11-22T22:26:20.996Z,0.47
2022-11-22T22:29:07.745Z,0.67
2022-11-22T22:31:35.668Z,0.80
2022-11-22T22:34:22.375Z,0.57
2022-11-22T22:37:09.099Z,1.00
2022-11-22T22:39:55.835Z,0.90
2022-11-22T22:42:42.578Z,0.90
2022-11-22T22:45:29.855Z,0.97
2022-11-22T22:48:16.561Z,1.10
2022-11-22T22:51:03.351Z,0.90
2022-11-22T22:53:50.664Z,1.10
2022-11-22T22:56:39.266Z,1.00
2022-11-22T22:59:26.010Z,1.40
2022-11-22T23:01:52.947Z,0.83
2022-11-22T23:04:39.736Z,1.43
2022-11-22T23:07:26.610Z,1.00
2022-11-22T23:10:13.422Z,0.80
2022-11-22T23:13:00.209Z,0.87
2022-11-22T23:15:57.954Z,1.00
2022-11-22T23:18:45.729Z,0.90
2022-11-22T23:21:35.085Z,1.10
2022-11-22T23:24:22.151Z,0.80
2022-11-22T23:27:09.167Z,0.60
2022-11-22T23:29:55.951Z,0.80
2022-11-22T23:32:42.882Z,0.70
2022-11-22T23:35:29.807Z,0.63
2022-11-22T23:38:16.604Z,0.53
2022-11-22T23:41:03.384Z,0.80
2022-11-22T23:43:50.339Z,0.60
2022-11-22T23:46:37.147Z,0.80
2022-11-22T23:49:24.923Z,0.80
2022-11-22T23:52:11.738Z,0.80
2022-11-22T23:54:58.519Z,0.77
2022-11-22T23:57:48.342Z,0.87
